Time;durP1;ratioP1;P1;durP2;ratioP2;P2;SDS_P1;SDS_P2;PMS_P1;PMS_P2;Temp;Humidity;BMP_temperature;BMP_pressure;BME280_temperature;BME280_humidity;BME280_pressure;Samples;Min_cycle;Max_cycle;Signal;HPM_P1;HPM_P2
2023/08/25 00:00:37;;;;;;;18.85;17.10;;;19.90;99.90;;;;;;4823607;29;20057;-83
2023/08/25 00:03:04;;;;;;;17.33;15.63;;;19.90;99.90;;;;;;4821414;29;20066;-85
2023/08/25 00:05:29;;;;;;;18.95;17.25;;;19.90;99.90;;;;;;4822630;29;20061;-82
2023/08/25 00:07:55;;;;;;;17.42;15.68;;;19.90;99.90;;;;;;4812790;29;20050;-83
2023/08/25 00:10:24;;;;;;;18.38;16.77;;;19.80;99.90;;;;;;4823205;29;20046;-83
2023/08/25 00:12:49;;;;;;;17.95;16.13;;;19.80;99.90;;;;;;4825775;29;20505;-83
2023/08/25 00:15:15;;;;;;;18.55;16.67;;;19.70;99.90;;;;;;4819858;29;20050;-83
2023/08/25 00:17:44;;;;;;;19.27;17.48;;;19.70;99.90;;;;;;4823373;29;20043;-83
2023/08/25 00:20:16;;;;;;;17.75;16.08;;;19.70;99.90;;;;;;4813662;29;20355;-82
2023/08/25 00:22:42;;;;;;;16.15;14.75;;;19.60;99.90;;;;;;4814976;29;20482;-83
2023/08/25 00:25:09;;;;;;;20.15;18.25;;;19.60;99.90;;;;;;4816996;29;20076;-83
2023/08/25 00:27:34;;;;;;;18.77;17.08;;;19.60;99.90;;;;;;4806582;29;20046;-83
2023/08/25 00:30:00;;;;;;;19.27;17.65;;;19.60;99.90;;;;;;4804690;29;20220;-83
2023/08/25 00:32:26;;;;;;;18.80;17.20;;;19.60;99.90;;;;;;4832350;29;20041;-83
2023/08/25 00:34:53;;;;;;;19.52;17.85;;;19.60;99.90;;;;;;4826937;29;20275;-84
2023/08/25 00:37:19;;;;;;;17.88;16.38;;;19.60;99.90;;;;;;4849482;29;20072;-83
2023/08/25 00:39:48;;;;;;;19.00;17.33;;;19.60;99.90;;;;;;4823510;29;20413;-82
2023/08/25 00:42:14;;;;;;;20.45;18.67;;;19.60;99.90;;;;;;4821822;29;20521;-84
2023/08/25 00:44:43;;;;;;;20.48;18.67;;;19.60;99.90;;;;;;4848375;29;20147;-83
2023/08/25 00:47:09;;;;;;;21.33;19.52;;;19.60;99.90;;;;;;4820329;29;20111;-83
2023/08/25 00:49:35;;;;;;;20.17;18.48;;;19.60;99.90;;;;;;4830642;29;20065;-84
2023/08/25 00:52:02;;;;;;;19.10;17.23;;;19.60;99.90;;;;;;4826618;29;20050;-83
2023/08/25 00:54:30;;;;;;;22.15;20.20;;;19.60;99.90;;;;;;4834209;29;20050;-84
2023/08/25 00:56:57;;;;;;;23.73;21.63;;;19.60;99.90;;;;;;4812236;29;20409;-84
2023/08/25 00:59:24;;;;;;;26.10;23.58;;;19.60;99.90;;;;;;4847467;29;20493;-84
2023/08/25 01:01:50;;;;;;;22.42;20.42;;;19.60;99.90;;;;;;4829921;29;20106;-84
2023/08/25 01:04:16;;;;;;;23.20;21.23;;;19.60;99.90;;;;;;4825281;29;20071;-83
2023/08/25 01:06:42;;;;;;;20.50;18.38;;;19.60;99.90;;;;;;4827800;29;20050;-84
2023/08/25 01:09:10;;;;;;;23.92;21.80;;;19.70;99.90;;;;;;4824013;29;20146;-84
2023/08/25 01:11:56;;;;;;;25.30;23.10;;;19.70;99.90;;;;;;4812950;29;20375;-84
2023/08/25 01:14:41;;;;;;;24.77;22.63;;;19.70;99.90;;;;;;4821803;29;20049;-83
2023/08/25 01:17:24;;;;;;;23.80;21.88;;;19.70;99.90;;;;;;4825425;29;20061;-83
2023/08/25 01:20:09;;;;;;;26.55;24.35;;;19.70;99.90;;;;;;4811304;29;20473;-83
2023/08/25 01:23:21;;;;;;;24.98;22.60;;;19.70;99.90;;;;;;4794861;29;20038;-84
2023/08/25 01:25:50;;;;;;;24.38;22.30;;;19.70;99.90;;;;;;4825522;29;20109;-84
2023/08/25 01:28:22;;;;;;;26.33;24.30;;;19.70;99.90;;;;;;4813576;29;21078;-83
2023/08/25 01:30:49;;;;;;;27.23;24.92;;;19.70;99.90;;;;;;4826255;29;20105;-84
2023/08/25 01:33:16;;;;;;;25.38;23.13;;;19.70;99.90;;;;;;4819550;29;20535;-83
2023/08/25 01:36:18;;;;;;;28.00;25.70;;;19.70;99.90;;;;;;4825937;29;20065;-84
2023/08/25 01:38:54;;;;;;;28.23;25.80;;;19.70;99.90;;;;;;4828801;29;20042;-83
2023/08/25 01:41:41;;;;;;;29.40;26.67;;;19.70;99.90;;;;;;4824930;29;20059;-84
2023/08/25 01:44:07;;;;;;;29.23;26.77;;;19.70;99.90;;;;;;4833990;29;20564;-84
2023/08/25 01:46:35;;;;;;;28.58;25.95;;;19.60;99.90;;;;;;4829036;29;20053;-83
2023/08/25 01:49:03;;;;;;;25.33;23.33;;;19.60;99.90;;;;;;4823831;29;20054;-84
2023/08/25 01:51:29;;;;;;;32.10;29.15;;;19.60;99.90;;;;;;4805804;29;20050;-83
2023/08/25 01:53:56;;;;;;;29.85;27.23;;;19.60;99.90;;;;;;4823454;29;20042;-84
2023/08/25 01:56:22;;;;;;;29.17;26.63;;;19.60;99.90;;;;;;4822415;29;20053;-84
2023/08/25 01:58:52;;;;;;;32.72;29.65;;;19.50;99.90;;;;;;4827868;29;20045;-83
2023/08/25 02:01:17;;;;;;;32.63;29.95;;;19.50;99.90;;;;;;4847525;29;20103;-84
2023/08/25 02:03:43;;;;;;;31.05;28.35;;;19.40;99.90;;;;;;4834622;29;20050;-82
2023/08/25 02:06:09;;;;;;;32.17;29.48;;;19.40;99.90;;;;;;4835500;29;20403;-84
2023/08/25 02:08:36;;;;;;;29.50;27.02;;;19.40;99.90;;;;;;4833237;29;20069;-84
2023/08/25 02:11:04;;;;;;;30.52;27.95;;;19.40;99.90;;;;;;4832852;29;20041;-84
2023/08/25 02:13:30;;;;;;;32.30;29.40;;;19.40;99.90;;;;;;4823268;29;20347;-82
2023/08/25 02:15:56;;;;;;;32.00;29.10;;;19.40;99.90;;;;;;4819413;29;20133;-84
2023/08/25 02:18:22;;;;;;;35.20;32.03;;;19.50;99.90;;;;;;4824222;29;20103;-84
2023/08/25 02:20:48;;;;;;;33.35;30.25;;;19.40;99.90;;;;;;4833901;29;20121;-84
2023/08/25 02:23:13;;;;;;;34.33;31.23;;;19.40;99.90;;;;;;4830531;29;20093;-84
2023/08/25 02:25:39;;;;;;;34.50;31.48;;;19.40;99.90;;;;;;4817504;29;20053;-84
2023/08/25 02:28:05;;;;;;;37.58;34.35;;;19.30;99.90;;;;;;4849601;29;20145;-84
2023/08/25 02:30:31;;;;;;;37.80;34.40;;;19.30;99.90;;;;;;4834242;29;20518;-85
2023/08/25 02:33:00;;;;;;;36.92;33.63;;;19.20;99.90;;;;;;4812679;29;21035;-84
2023/08/25 02:35:26;;;;;;;38.55;35.13;;;19.30;99.90;;;;;;4830013;29;21029;-84
2023/08/25 02:38:05;;;;;;;37.95;34.58;;;19.20;99.90;;;;;;4835769;29;20050;-84
2023/08/25 02:40:31;;;;;;;38.67;35.10;;;19.20;99.90;;;;;;4832483;29;20136;-83
2023/08/25 02:43:04;;;;;;;41.35;37.42;;;19.20;99.90;;;;;;4832787;29;20121;-84
2023/08/25 02:45:31;;;;;;;44.15;39.85;;;19.20;99.90;;;;;;4818924;29;20081;-84
2023/08/25 02:47:57;;;;;;;40.17;36.55;;;19.10;99.90;;;;;;4827177;29;20369;-83
2023/08/25 02:50:24;;;;;;;46.00;41.53;;;19.10;99.90;;;;;;4834554;29;20064;-83
2023/08/25 02:52:50;;;;;;;41.83;37.60;;;19.10;99.90;;;;;;4832224;29;20532;-83
2023/08/25 02:55:19;;;;;;;45.78;41.58;;;19.10;99.90;;;;;;4849114;29;20062;-83
2023/08/25 02:57:45;;;;;;;45.97;41.63;;;19.10;99.90;;;;;;4828694;29;20509;-84
2023/08/25 03:00:13;;;;;;;54.33;48.92;;;19.10;99.90;;;;;;4822671;29;20217;-83
2023/08/25 03:02:40;;;;;;;50.40;45.60;;;19.00;99.90;;;;;;4819730;29;20136;-84
2023/08/25 03:05:07;;;;;;;45.88;41.55;;;19.10;99.90;;;;;;4821452;29;20545;-84
2023/08/25 03:07:33;;;;;;;46.22;41.83;;;19.00;99.90;;;;;;4817341;29;20082;-83
2023/08/25 03:10:00;;;;;;;50.30;45.53;;;19.00;99.90;;;;;;4845388;29;20038;-84
2023/08/25 03:12:28;;;;;;;53.80;48.60;;;19.00;99.90;;;;;;4829959;29;20062;-84
2023/08/25 03:14:54;;;;;;;46.42;41.92;;;19.00;99.90;;;;;;4823622;29;20046;-84
2023/08/25 03:17:21;;;;;;;46.28;42.05;;;19.00;99.90;;;;;;4833713;29;20058;-84
2023/08/25 03:19:49;;;;;;;49.50;44.67;;;19.00;99.90;;;;;;4825519;29;20054;-84
2023/08/25 03:22:15;;;;;;;45.47;41.03;;;19.00;99.90;;;;;;4818387;29;20106;-84
2023/08/25 03:24:41;;;;;;;50.88;45.78;;;19.00;99.90;;;;;;4849121;29;20050;-83
2023/08/25 03:27:07;;;;;;;48.88;44.25;;;19.00;99.90;;;;;;4831982;29;20136;-84
2023/08/25 03:29:33;;;;;;;50.70;45.75;;;19.00;99.90;;;;;;4817933;29;20034;-84
2023/08/25 03:31:59;;;;;;;53.75;48.22;;;19.00;99.90;;;;;;4819826;29;20501;-84
2023/08/25 03:34:25;;;;;;;52.33;47.03;;;19.00;99.90;;;;;;4818221;29;20053;-84
2023/08/25 03:36:54;;;;;;;49.85;44.95;;;18.90;99.90;;;;;;4818469;29;20046;-84
2023/08/25 03:39:20;;;;;;;45.22;41.22;;;18.90;99.90;;;;;;4833783;29;20382;-84
2023/08/25 03:41:46;;;;;;;49.63;44.80;;;18.90;99.90;;;;;;4844961;29;20536;-84
2023/08/25 03:44:13;;;;;;;45.90;41.50;;;18.90;99.90;;;;;;4848570;29;20054;-85
2023/08/25 03:46:39;;;;;;;50.92;45.97;;;18.90;99.90;;;;;;4822295;29;20089;-84
2023/08/25 03:49:06;;;;;;;48.33;43.63;;;18.80;99.90;;;;;;4834728;29;20077;-85
2023/08/25 03:51:34;;;;;;;47.65;42.92;;;18.90;99.90;;;;;;4817029;29;20045;-84
2023/08/25 03:54:00;;;;;;;54.10;48.53;;;18.90;99.90;;;;;;4851662;29;20586;-85
2023/08/25 03:56:26;;;;;;;57.00;51.30;;;18.90;99.90;;;;;;4837467;29;20565;-85
2023/08/25 03:58:52;;;;;;;53.53;48.13;;;18.90;99.90;;;;;;4821157;29;20053;-85
2023/08/25 04:01:18;;;;;;;54.63;49.15;;;18.80;99.90;;;;;;4834281;29;20070;-84
2023/08/25 04:03:50;;;;;;;63.22;55.25;;;18.90;99.90;;;;;;4826539;29;20056;-86
2023/08/25 04:06:15;;;;;;;53.95;48.83;;;18.90;99.90;;;;;;4826855;29;20604;-84
2023/08/25 04:08:41;;;;;;;54.22;48.75;;;18.90;99.90;;;;;;4835875;29;20138;-84
2023/08/25 04:11:07;;;;;;;58.13;52.25;;;18.90;99.90;;;;;;4822219;29;20088;-84
2023/08/25 04:13:36;;;;;;;55.95;50.28;;;18.90;99.90;;;;;;4835854;29;20046;-84
2023/08/25 04:16:04;;;;;;;57.83;51.75;;;18.90;99.90;;;;;;4833526;29;20050;-83
2023/08/25 04:18:30;;;;;;;59.38;52.95;;;18.90;99.90;;;;;;4837043;29;20078;-83
2023/08/25 04:20:56;;;;;;;56.83;50.95;;;18.90;99.90;;;;;;4834290;29;20097;-84
2023/08/25 04:23:24;;;;;;;71.25;58.08;;;19.00;99.90;;;;;;4833782;29;20517;-84
2023/08/25 04:25:50;;;;;;;59.28;52.95;;;19.00;99.90;;;;;;4821658;29;20098;-84
2023/08/25 04:28:16;;;;;;;67.13;57.30;;;19.00;99.90;;;;;;4820364;29;20046;-84
2023/08/25 04:30:42;;;;;;;62.88;56.15;;;19.00;99.90;;;;;;4837870;29;20060;-84
2023/08/25 04:33:08;;;;;;;64.55;55.28;;;19.00;99.90;;;;;;4832412;29;20125;-84
2023/08/25 04:35:36;;;;;;;68.53;57.38;;;19.00;99.90;;;;;;4831292;29;20046;-83
2023/08/25 04:38:02;;;;;;;71.90;60.90;;;19.00;99.90;;;;;;4837581;29;20501;-84
2023/08/25 04:40:31;;;;;;;69.80;59.40;;;19.00;99.90;;;;;;4853271;29;20082;-85
2023/08/25 04:42:57;;;;;;;68.30;59.25;;;19.00;99.90;;;;;;4837754;29;20058;-84
2023/08/25 04:45:23;;;;;;;65.78;56.58;;;19.10;99.90;;;;;;4836595;29;20056;-85
2023/08/25 04:47:48;;;;;;;63.42;56.42;;;19.10;99.90;;;;;;4819907;29;20081;-84
2023/08/25 04:50:14;;;;;;;72.93;59.88;;;19.10;99.90;;;;;;4837289;29;20053;-85
2023/08/25 04:52:43;;;;;;;68.38;57.78;;;19.10;99.90;;;;;;4836424;29;20885;-85
2023/08/25 04:55:12;;;;;;;78.90;62.53;;;19.10;99.90;;;;;;4822118;29;20053;-84
2023/08/25 04:57:39;;;;;;;67.53;58.35;;;19.10;99.90;;;;;;4821909;29;20061;-84
2023/08/25 05:00:08;;;;;;;76.43;61.08;;;19.10;99.90;;;;;;4820950;29;20077;-84
2023/08/25 05:02:34;;;;;;;77.07;62.78;;;19.00;99.90;;;;;;4819447;29;20042;-84
2023/08/25 05:05:03;;;;;;;72.07;59.03;;;19.10;99.90;;;;;;4836043;29;20053;-84
2023/08/25 05:07:29;;;;;;;87.93;67.25;;;19.10;99.90;;;;;;4847241;29;20061;-85
2023/08/25 05:09:55;;;;;;;84.28;65.25;;;19.10;99.90;;;;;;4832201;29;20053;-85
2023/08/25 05:12:21;;;;;;;69.55;58.78;;;19.10;99.90;;;;;;4833058;29;20042;-84
2023/08/25 05:14:47;;;;;;;92.75;69.50;;;19.10;99.90;;;;;;4820283;29;20057;-85
2023/08/25 05:17:13;;;;;;;69.95;59.65;;;19.10;99.90;;;;;;4834793;29;20593;-85
2023/08/25 05:19:39;;;;;;;90.47;68.40;;;19.10;99.90;;;;;;4849483;29;20064;-85
2023/08/25 05:22:05;;;;;;;76.68;63.20;;;19.10;99.90;;;;;;4826540;29;20058;-84
2023/08/25 05:24:31;;;;;;;87.35;67.97;;;19.10;99.90;;;;;;4818044;29;20124;-85
2023/08/25 05:26:57;;;;;;;77.68;63.05;;;19.10;99.90;;;;;;4827940;29;20635;-84
2023/08/25 05:29:24;;;;;;;81.55;66.05;;;19.10;99.90;;;;;;4830025;29;20042;-85
2023/08/25 05:31:51;;;;;;;81.43;66.25;;;19.20;99.90;;;;;;4826961;29;20052;-85
2023/08/25 05:34:17;;;;;;;80.85;65.13;;;19.20;99.90;;;;;;4849490;29;20087;-84
2023/08/25 05:36:45;;;;;;;80.53;64.45;;;19.30;99.90;;;;;;4819318;29;20058;-85
2023/08/25 05:39:12;;;;;;;80.10;65.45;;;19.30;99.90;;;;;;4821232;29;20061;-85
2023/08/25 05:41:41;;;;;;;71.75;59.55;;;19.30;99.90;;;;;;4834095;29;20053;-86
2023/08/25 05:44:07;;;;;;;83.05;63.80;;;19.30;99.90;;;;;;4834926;29;20054;-85
2023/08/25 05:46:35;;;;;;;72.20;62.38;;;19.30;99.90;;;;;;4815428;29;20051;-84
2023/08/25 05:49:01;;;;;;;77.93;63.15;;;19.30;99.90;;;;;;4819081;29;20058;-84
2023/08/25 05:51:27;;;;;;;80.80;66.40;;;19.30;99.90;;;;;;4834906;29;20046;-85
2023/08/25 05:53:53;;;;;;;79.80;63.33;;;19.30;99.90;;;;;;4850619;29;20098;-85
2023/08/25 05:56:19;;;;;;;87.50;68.25;;;19.30;99.90;;;;;;4834339;29;20050;-85
2023/08/25 05:58:45;;;;;;;82.18;65.95;;;19.40;99.90;;;;;;4819489;29;20083;-85
2023/08/25 06:01:11;;;;;;;77.25;64.57;;;19.40;99.90;;;;;;4831513;29;20064;-84
2023/08/25 06:03:37;;;;;;;72.43;61.78;;;19.40;99.90;;;;;;4846938;29;20050;-85
2023/08/25 06:06:03;;;;;;;82.05;67.82;;;19.40;99.90;;;;;;4778861;29;1369594;-84
2023/08/25 06:08:30;;;;;;;77.72;65.75;;;19.40;99.90;;;;;;4830838;29;20398;-84
2023/08/25 06:10:57;;;;;;;88.15;68.53;;;19.40;99.90;;;;;;4834413;29;20482;-84
2023/08/25 06:13:26;;;;;;;89.70;70.45;;;19.40;99.90;;;;;;4832397;29;20582;-84
2023/08/25 06:15:52;;;;;;;70.77;61.57;;;19.50;99.90;;;;;;4832366;29;20050;-84
2023/08/25 06:18:17;;;;;;;77.15;65.60;;;19.40;99.90;;;;;;4821161;29;20299;-83
2023/08/25 06:20:44;;;;;;;85.32;69.88;;;19.50;99.90;;;;;;4815848;29;20493;-84
2023/08/25 06:23:13;;;;;;;79.25;65.50;;;19.50;99.90;;;;;;4820629;29;20132;-84
2023/08/25 06:25:39;;;;;;;75.53;64.93;;;19.50;99.90;;;;;;4818640;29;20480;-83
2023/08/25 06:28:05;;;;;;;69.72;62.10;;;19.60;99.90;;;;;;4816522;29;20064;-83
2023/08/25 06:30:32;;;;;;;71.10;61.88;;;19.60;99.90;;;;;;4829409;29;20060;-83
2023/08/25 06:32:58;;;;;;;69.63;62.22;;;19.70;99.90;;;;;;4835893;29;20053;-83
2023/08/25 06:35:34;;;;;;;64.90;57.85;;;19.70;99.90;;;;;;4816125;29;20050;-83
2023/08/25 06:38:04;;;;;;;69.50;61.00;;;19.80;99.90;;;;;;4809002;29;20050;-83
2023/08/25 06:40:30;;;;;;;65.15;57.95;;;19.80;99.90;;;;;;4826337;29;20121;-83
2023/08/25 06:42:56;;;;;;;70.65;60.40;;;19.80;99.90;;;;;;4821570;29;20058;-83
2023/08/25 06:45:22;;;;;;;66.28;59.42;;;19.90;99.90;;;;;;4822252;29;20047;-83
2023/08/25 06:47:50;;;;;;;68.40;61.33;;;19.80;99.90;;;;;;4821213;29;20050;-83
2023/08/25 06:50:16;;;;;;;73.82;65.60;;;19.90;99.90;;;;;;4845711;29;20049;-83
2023/08/25 06:52:42;;;;;;;65.25;58.42;;;20.00;99.90;;;;;;4847250;29;20056;-82
2023/08/25 06:55:08;;;;;;;66.38;59.53;;;20.00;99.90;;;;;;4822101;29;20421;-83
2023/08/25 06:57:34;;;;;;;63.38;56.90;;;20.00;99.90;;;;;;4821596;29;20080;-83
2023/08/25 07:00:00;;;;;;;62.20;55.83;;;20.10;99.90;;;;;;4826768;29;20490;-83
2023/08/25 07:02:27;;;;;;;64.30;57.60;;;20.10;99.90;;;;;;4826409;29;20149;-83
2023/08/25 07:04:55;;;;;;;63.40;57.00;;;20.20;99.90;;;;;;4816482;29;20056;-82
2023/08/25 07:07:25;;;;;;;58.40;52.63;;;20.30;99.90;;;;;;4847678;29;20425;-82
2023/08/25 07:09:51;;;;;;;63.30;56.60;;;20.30;99.90;;;;;;4827711;29;20106;-82
2023/08/25 07:12:17;;;;;;;65.43;58.63;;;20.40;99.90;;;;;;4824185;29;20452;-83
2023/08/25 07:14:43;;;;;;;66.30;59.40;;;20.40;99.90;;;;;;4819015;29;20125;-84
2023/08/25 07:17:12;;;;;;;58.33;52.50;;;20.40;99.90;;;;;;4818312;29;20050;-83
2023/08/25 07:19:38;;;;;;;58.40;52.55;;;20.50;99.90;;;;;;4819930;29;20464;-83
2023/08/25 07:22:08;;;;;;;58.13;52.58;;;20.50;99.90;;;;;;4822015;29;20121;-83
2023/08/25 07:24:34;;;;;;;58.80;52.90;;;20.60;99.90;;;;;;4848442;29;20049;-83
2023/08/25 07:27:00;;;;;;;57.60;52.03;;;20.60;99.90;;;;;;4811910;29;20447;-83
2023/08/25 07:29:26;;;;;;;53.13;47.92;;;20.60;99.90;;;;;;4827956;29;20390;-84
2023/08/25 07:31:52;;;;;;;56.00;50.35;;;20.70;99.90;;;;;;4824555;29;20061;-85
2023/08/25 07:34:18;;;;;;;54.35;48.63;;;20.70;99.90;;;;;;4825534;29;20041;-83
2023/08/25 07:36:44;;;;;;;58.50;52.53;;;20.70;99.90;;;;;;4826174;29;20557;-83
2023/08/25 07:39:13;;;;;;;58.20;52.22;;;20.70;99.90;;;;;;4832516;29;20121;-82
2023/08/25 07:41:39;;;;;;;55.47;49.88;;;20.80;99.90;;;;;;4820885;29;20091;-81
2023/08/25 07:44:07;;;;;;;51.03;45.78;;;20.80;99.90;;;;;;4830003;29;20049;-81
2023/08/25 07:46:37;;;;;;;53.70;48.25;;;20.80;99.90;;;;;;4821834;29;20528;-82
2023/08/25 07:49:07;;;;;;;55.53;49.83;;;20.80;99.90;;;;;;4827234;29;20226;-82
2023/08/25 07:51:35;;;;;;;54.58;49.15;;;20.80;99.90;;;;;;4829276;29;20532;-81
2023/08/25 07:54:01;;;;;;;60.25;53.90;;;20.90;99.90;;;;;;4825304;29;20455;-82
2023/08/25 07:56:30;;;;;;;55.58;50.03;;;20.90;99.90;;;;;;4826783;29;20046;-82
2023/08/25 07:58:55;;;;;;;53.63;48.03;;;21.00;99.90;;;;;;4827859;29;20543;-82
2023/08/25 08:01:21;;;;;;;51.97;46.88;;;21.00;99.90;;;;;;4824673;29;20061;-82
2023/08/25 08:03:47;;;;;;;50.63;45.58;;;21.00;99.90;;;;;;4820836;29;20049;-81
2023/08/25 08:06:13;;;;;;;57.35;51.42;;;21.00;99.90;;;;;;4821842;29;20482;-82
2023/08/25 08:08:39;;;;;;;52.78;47.38;;;21.00;99.90;;;;;;4827568;29;20092;-81
2023/08/25 08:11:05;;;;;;;52.17;47.08;;;21.10;99.90;;;;;;4811388;29;20454;-81
2023/08/25 08:13:31;;;;;;;57.30;51.33;;;21.10;99.90;;;;;;4820085;29;20388;-82
2023/08/25 08:15:57;;;;;;;51.88;46.72;;;21.20;99.90;;;;;;4818372;29;20066;-81
2023/08/25 08:18:23;;;;;;;51.70;46.40;;;21.20;99.90;;;;;;4822523;29;20463;-82
2023/08/25 08:20:49;;;;;;;49.03;44.13;;;21.20;99.90;;;;;;4804079;29;20077;-82
2023/08/25 08:23:15;;;;;;;50.72;45.30;;;21.20;99.90;;;;;;4827854;29;20054;-82
2023/08/25 08:25:44;;;;;;;56.55;50.55;;;21.20;99.90;;;;;;4815591;29;20493;-82
2023/08/25 08:28:10;;;;;;;50.00;44.65;;;21.20;99.90;;;;;;4820794;29;20077;-82
2023/08/25 08:30:40;;;;;;;47.95;43.40;;;21.20;99.90;;;;;;4824287;29;20485;-82
2023/08/25 08:33:12;;;;;;;43.92;39.63;;;21.10;99.90;;;;;;4820822;29;20066;-81
2023/08/25 08:35:38;;;;;;;43.35;38.85;;;21.10;99.90;;;;;;4819134;29;20401;-81
2023/08/25 08:38:05;;;;;;;45.88;41.17;;;21.10;99.90;;;;;;4824750;29;20081;-82
2023/08/25 08:40:32;;;;;;;38.22;34.42;;;21.00;99.90;;;;;;4810820;29;20301;-81
2023/08/25 08:43:04;;;;;;;43.08;38.80;;;21.00;99.90;;;;;;4813399;29;20109;-81
2023/08/25 08:45:39;;;;;;;40.53;36.35;;;21.00;99.90;;;;;;4823835;29;20094;-82
2023/08/25 08:48:06;;;;;;;38.45;34.60;;;21.00;99.90;;;;;;4823643;29;20042;-82
2023/08/25 08:50:33;;;;;;;40.35;36.13;;;21.00;99.90;;;;;;4824633;29;20046;-82
2023/08/25 08:53:00;;;;;;;45.25;40.45;;;21.00;99.90;;;;;;4825630;29;20038;-82
2023/08/25 08:55:27;;;;;;;42.50;38.30;;;21.00;99.90;;;;;;4830326;29;20546;-82
2023/08/25 08:57:53;;;;;;;42.45;38.20;;;21.00;99.90;;;;;;4809637;29;20553;-82
2023/08/25 09:00:20;;;;;;;42.85;38.63;;;21.00;99.90;;;;;;4821143;29;20045;-83
2023/08/25 09:02:50;;;;;;;43.70;39.22;;;21.00;99.90;;;;;;4828691;29;20079;-83
2023/08/25 09:05:21;;;;;;;42.50;38.30;;;21.00;99.90;;;;;;4823348;29;20053;-83
2023/08/25 09:07:50;;;;;;;48.53;43.50;;;21.00;99.90;;;;;;4825986;29;20421;-83
2023/08/25 09:10:24;;;;;;;;;;;21.00;99.90;;;;;;4823768;29;20125;-83
2023/08/25 09:12:50;;;;;;;42.75;38.55;;;21.00;99.90;;;;;;4826651;29;19930;-83
2023/08/25 09:15:26;;;;;;;43.85;39.65;;;21.10;99.90;;;;;;4822975;29;20042;-84
2023/08/25 09:18:02;;;;;;;44.50;40.17;;;21.10;99.90;;;;;;4825348;29;20513;-84
2023/08/25 09:20:33;;;;;;;44.28;39.58;;;21.10;99.90;;;;;;4823772;29;20054;-84
2023/08/25 09:23:00;;;;;;;46.15;41.42;;;21.10;99.90;;;;;;4822701;29;20054;-84
2023/08/25 09:25:27;;;;;;;49.45;44.47;;;21.10;99.90;;;;;;4821756;29;20133;-84
2023/08/25 09:28:00;;;;;;;50.00;44.85;;;21.10;99.90;;;;;;4831584;29;20053;-84
2023/08/25 09:30:37;;;;;;;51.20;46.20;;;21.20;99.90;;;;;;4826429;29;20046;-84
2023/08/25 09:33:15;;;;;;;49.28;44.28;;;21.20;99.90;;;;;;4827515;29;20034;-84
2023/08/25 09:35:42;;;;;;;50.42;45.63;;;21.10;99.90;;;;;;4831322;29;20093;-84
2023/08/25 09:38:20;;;;;;;48.13;43.25;;;21.20;99.90;;;;;;4809966;29;20401;-84
2023/08/25 09:40:46;;;;;;;47.63;43.03;;;21.20;99.90;;;;;;4831263;29;20121;-84
2023/08/25 09:43:12;;;;;;;49.65;44.75;;;21.20;99.90;;;;;;4825765;29;20533;-83
2023/08/25 09:45:39;;;;;;;50.25;45.00;;;21.20;99.90;;;;;;4828093;29;20070;-84
2023/08/25 09:48:13;;;;;;;47.03;42.58;;;21.20;99.90;;;;;;4826386;29;20050;-84
2023/08/25 09:50:43;;;;;;;45.45;40.85;;;21.20;99.90;;;;;;4810560;29;20047;-82
2023/08/25 09:53:13;;;;;;;;;;;21.20;99.90;;;;;;4825890;29;20996;-82
2023/08/25 09:55:39;;;;;;;46.38;41.58;;;21.20;99.90;;;;;;4821762;29;20337;-81
2023/08/25 09:58:06;;;;;;;45.42;40.67;;;21.30;99.90;;;;;;4827575;29;20510;-81
2023/08/25 10:00:37;;;;;;;47.45;42.55;;;21.40;99.90;;;;;;4824416;29;20043;-82
2023/08/25 10:03:05;;;;;;;46.55;40.88;;;21.50;99.90;;;;;;4819363;29;20054;-82
2023/08/25 10:05:34;;;;;;;50.60;45.50;;;21.50;99.90;;;;;;4825308;29;20061;-83
2023/08/25 10:08:05;;;;;;;45.75;40.72;;;21.60;99.90;;;;;;4825093;29;20054;-82
2023/08/25 10:10:35;;;;;;;45.55;40.70;;;21.80;99.90;;;;;;4824890;29;20086;-82
2023/08/25 10:13:03;;;;;;;41.67;37.47;;;21.90;99.90;;;;;;4823363;29;20087;-82
2023/08/25 10:15:33;;;;;;;41.03;37.03;;;22.00;99.90;;;;;;4825011;29;20050;-82
2023/08/25 10:18:06;;;;;;;39.75;35.65;;;22.00;99.90;;;;;;4844377;29;21121;-82
2023/08/25 10:20:34;;;;;;;46.45;41.75;;;22.00;99.90;;;;;;4826936;29;20054;-82
2023/08/25 10:23:04;;;;;;;42.58;38.33;;;22.00;99.90;;;;;;4825969;29;20387;-82
2023/08/25 10:25:31;;;;;;;44.55;39.90;;;22.00;99.90;;;;;;4826198;29;20580;-82
2023/08/25 10:28:03;;;;;;;39.38;35.58;;;22.00;99.90;;;;;;4826421;29;20354;-82
2023/08/25 10:30:30;;;;;;;36.65;32.83;;;22.00;99.90;;;;;;4823973;29;20050;-82
2023/08/25 10:33:23;;;;;;;35.13;31.52;;;22.00;99.90;;;;;;4813718;29;20124;-82
2023/08/25 10:35:52;;;;;;;40.97;36.95;;;22.10;99.90;;;;;;4806630;29;20061;-82
2023/08/25 10:38:19;;;;;;;;;;;22.20;99.90;;;;;;4824222;29;20398;-82
2023/08/25 10:40:53;;;;;;;31.92;29.00;;;22.40;99.90;;;;;;4833523;29;20584;-81
2023/08/25 10:43:32;;;;;;;32.90;29.60;;;22.50;99.90;;;;;;4826449;29;20068;-81
2023/08/25 10:46:05;;;;;;;32.00;27.70;;;22.60;99.90;;;;;;4825475;29;20042;-81
2023/08/25 10:48:31;;;;;;;29.98;26.83;;;22.60;99.90;;;;;;4844705;29;20091;-81
2023/08/25 10:51:13;;;;;;;34.40;30.88;;;22.60;99.90;;;;;;4821407;29;20078;-81
2023/08/25 10:53:49;;;;;;;33.08;29.55;;;22.60;99.90;;;;;;4826025;29;20049;-80
2023/08/25 10:56:18;;;;;;;29.73;26.77;;;22.50;99.90;;;;;;4843729;29;20048;-81
2023/08/25 10:59:14;;;;;;;32.23;29.07;;;22.40;99.90;;;;;;4830867;29;20125;-81
2023/08/25 11:01:55;;;;;;;27.63;24.73;;;22.30;99.90;;;;;;4817084;29;20078;-81
2023/08/25 11:04:29;;;;;;;29.48;26.42;;;22.30;99.90;;;;;;4822957;29;20046;-82
2023/08/25 11:06:59;;;;;;;28.67;25.75;;;22.20;99.90;;;;;;4828599;29;20076;-81
2023/08/25 11:09:30;;;;;;;28.98;26.02;;;22.10;99.90;;;;;;4816813;29;20061;-82
2023/08/25 11:12:14;;;;;;;28.48;25.58;;;22.10;99.90;;;;;;4818036;29;20102;-81
2023/08/25 11:14:44;;;;;;;27.13;24.42;;;22.10;99.90;;;;;;4821774;29;20521;-81
2023/08/25 11:17:13;;;;;;;26.30;23.63;;;22.10;99.90;;;;;;4829125;29;20057;-81
2023/08/25 11:19:42;;;;;;;24.40;22.05;;;22.10;99.90;;;;;;4815625;29;20046;-81
2023/08/25 11:22:14;;;;;;;25.88;22.13;;;22.10;99.90;;;;;;4823503;29;20574;-81
2023/08/25 11:24:44;;;;;;;22.42;20.35;;;22.10;99.90;;;;;;4827843;29;20125;-81
2023/08/25 11:27:16;;;;;;;26.83;21.70;;;22.30;99.90;;;;;;4829212;29;20532;-81
2023/08/25 11:29:45;;;;;;;25.65;23.13;;;22.30;99.90;;;;;;4828499;29;20054;-81
2023/08/25 11:32:15;;;;;;;23.37;20.97;;;22.30;99.90;;;;;;4819676;29;20058;-81
2023/08/25 11:34:48;;;;;;;24.42;22.13;;;22.40;99.90;;;;;;4825056;29;20491;-81
2023/08/25 11:37:17;;;;;;;20.70;18.63;;;22.40;99.90;;;;;;4829197;29;20045;-81
2023/08/25 11:39:44;;;;;;;22.17;19.90;;;22.60;99.90;;;;;;4812603;29;20053;-81
2023/08/25 11:42:19;;;;;;;20.13;17.95;;;22.70;99.90;;;;;;4823292;29;20077;-81
2023/08/25 11:44:45;;;;;;;18.13;16.23;;;22.80;99.90;;;;;;4805607;29;20070;-81
2023/08/25 11:47:14;;;;;;;17.88;15.93;;;22.90;99.90;;;;;;4824303;29;20084;-81
2023/08/25 11:49:39;;;;;;;16.43;14.57;;;23.00;99.90;;;;;;4824427;29;20129;-81
2023/08/25 11:52:09;;;;;;;17.83;14.88;;;23.00;99.90;;;;;;4806205;29;20409;-80
2023/08/25 11:54:48;;;;;;;15.35;13.77;;;23.10;99.90;;;;;;4823629;29;20279;-80
2023/08/25 11:57:18;;;;;;;16.30;12.88;;;23.10;99.90;;;;;;4820174;29;20103;-80
2023/08/25 11:59:48;;;;;;;14.95;12.73;;;23.10;99.90;;;;;;4808114;29;20050;-81
2023/08/25 12:02:22;;;;;;;18.17;16.38;;;23.00;99.90;;;;;;4825607;29;20064;-80
2023/08/25 12:04:59;;;;;;;21.20;19.15;;;23.00;99.90;;;;;;4829107;29;20443;-80
2023/08/25 12:07:29;;;;;;;21.55;19.45;;;22.90;99.90;;;;;;4815903;29;20066;-80
2023/08/25 12:09:57;;;;;;;23.65;21.17;;;22.90;99.90;;;;;;4819341;29;20053;-81
2023/08/25 12:12:23;;;;;;;22.17;20.02;;;22.90;99.90;;;;;;4821635;29;20034;-80
2023/08/25 12:14:53;;;;;;;24.85;22.45;;;22.80;99.90;;;;;;4811357;29;20046;-80
2023/08/25 12:17:20;;;;;;;;;;;22.80;99.90;;;;;;4825981;29;20056;-81
2023/08/25 12:19:45;;;;;;;29.48;26.73;;;22.80;99.90;;;;;;4823684;29;20431;-81
2023/08/25 12:22:15;;;;;;;26.92;24.52;;;22.70;99.90;;;;;;4830482;29;20140;-81
2023/08/25 12:24:44;;;;;;;;;;;22.70;99.90;;;;;;4831481;29;20521;-81
2023/08/25 12:27:14;;;;;;;27.45;24.85;;;22.60;99.90;;;;;;4827302;29;20368;-82
2023/08/25 12:29:39;;;;;;;34.30;31.02;;;22.50;99.90;;;;;;4849541;29;20054;-83
2023/08/25 12:32:07;;;;;;;31.92;28.92;;;22.50;99.90;;;;;;4809508;29;20042;-84
2023/08/25 12:34:34;;;;;;;33.72;30.48;;;22.50;99.90;;;;;;4808435;29;20061;-84